<?xml version="1.0" encoding="UTF-8" standalone="no" ?>
<gpx xmlns="http://www.topografix.com/GPX/1/1" xmlns:xsi="http://www.w3.org/2001/XMLSchema-instance" xsi:schemaLocation="http://www.topografix.com/GPX/1/1 http://www.topografix.com/GPX/1/1/gpx.xsd" version="1.1" creator="VisuGPX - https://www.visugpx.com">
  <metadata>
    <name>25 km Lucas 2024</name>
  </metadata>
  <trk>
    <name><![CDATA[24,6 km Lucas 2024-17712342]]></name>
    <trkseg>
      <trkpt lat="45.61749" lon="4.41973">
        <ele>469</ele>
        <time>2024-04-26T16:23:43Z</time>
      </trkpt>
      <trkpt lat="45.61744" lon="4.4198">
        <ele>469</ele>
        <time>2024-04-26T16:23:52Z</time>
      </trkpt>
      <trkpt lat="45.61741" lon="4.42001">
        <ele>469</ele>
        <time>2024-04-26T16:24:12Z</time>
      </trkpt>
      <trkpt lat="45.61745" lon="4.4202">
        <ele>469</ele>
        <time>2024-04-26T16:24:31Z</time>
      </trkpt>
      <trkpt lat="45.61751" lon="4.4204">
        <ele>469</ele>
        <time>2024-04-26T16:24:51Z</time>
      </trkpt>
      <trkpt lat="45.61804" lon="4.42192">
        <ele>469</ele>
        <time>2024-04-26T16:27:30Z</time>
      </trkpt>
      <trkpt lat="45.61803" lon="4.42193">
        <ele>469</ele>
        <time>2024-04-26T16:27:31Z</time>
      </trkpt>
      <trkpt lat="45.61791" lon="4.42205">
        <ele>469</ele>
        <time>2024-04-26T16:27:51Z</time>
      </trkpt>
      <trkpt lat="45.61771" lon="4.42237">
        <ele>469</ele>
        <time>2024-04-26T16:28:31Z</time>
      </trkpt>
      <trkpt lat="45.6176" lon="4.42259">
        <ele>470</ele>
        <time>2024-04-26T16:28:56Z</time>
      </trkpt>
      <trkpt lat="45.61757" lon="4.42277">
        <ele>471</ele>
        <time>2024-04-26T16:29:13Z</time>
      </trkpt>
      <trkpt lat="45.61751" lon="4.42343">
        <ele>475</ele>
        <time>2024-04-26T16:30:16Z</time>
      </trkpt>
      <trkpt lat="45.61746" lon="4.42363">
        <ele>477</ele>
        <time>2024-04-26T16:30:35Z</time>
      </trkpt>
      <trkpt lat="45.61752" lon="4.42377">
        <ele>476</ele>
        <time>2024-04-26T16:30:51Z</time>
      </trkpt>
      <trkpt lat="45.61774" lon="4.42445">
        <ele>477</ele>
        <time>2024-04-26T16:32:01Z</time>
      </trkpt>
      <trkpt lat="45.61787" lon="4.42479">
        <ele>477</ele>
        <time>2024-04-26T16:32:37Z</time>
      </trkpt>
      <trkpt lat="45.61789" lon="4.42566">
        <ele>483</ele>
        <time>2024-04-26T16:33:58Z</time>
      </trkpt>
      <trkpt lat="45.618" lon="4.42634">
        <ele>489</ele>
        <time>2024-04-26T16:35:03Z</time>
      </trkpt>
      <trkpt lat="45.61796" lon="4.4264">
        <ele>489</ele>
        <time>2024-04-26T16:35:11Z</time>
      </trkpt>
      <trkpt lat="45.61786" lon="4.42648">
        <ele>490</ele>
        <time>2024-04-26T16:35:26Z</time>
      </trkpt>
      <trkpt lat="45.61758" lon="4.4268">
        <ele>494</ele>
        <time>2024-04-26T16:36:14Z</time>
      </trkpt>
      <trkpt lat="45.61748" lon="4.427">
        <ele>495</ele>
        <time>2024-04-26T16:36:37Z</time>
      </trkpt>
      <trkpt lat="45.61737" lon="4.42732">
        <ele>497</ele>
        <time>2024-04-26T16:37:10Z</time>
      </trkpt>
      <trkpt lat="45.61729" lon="4.42768">
        <ele>500</ele>
        <time>2024-04-26T16:37:46Z</time>
      </trkpt>
      <trkpt lat="45.61724" lon="4.42819">
        <ele>504</ele>
        <time>2024-04-26T16:38:34Z</time>
      </trkpt>
      <trkpt lat="45.61733" lon="4.42837">
        <ele>505</ele>
        <time>2024-04-26T16:38:54Z</time>
      </trkpt>
      <trkpt lat="45.61747" lon="4.42858">
        <ele>506</ele>
        <time>2024-04-26T16:39:21Z</time>
      </trkpt>
      <trkpt lat="45.61757" lon="4.42876">
        <ele>508</ele>
        <time>2024-04-26T16:39:43Z</time>
      </trkpt>
      <trkpt lat="45.61763" lon="4.42902">
        <ele>510</ele>
        <time>2024-04-26T16:40:08Z</time>
      </trkpt>
      <trkpt lat="45.61769" lon="4.42914">
        <ele>511</ele>
        <time>2024-04-26T16:40:22Z</time>
      </trkpt>
      <trkpt lat="45.6178" lon="4.42926">
        <ele>513</ele>
        <time>2024-04-26T16:40:41Z</time>
      </trkpt>
      <trkpt lat="45.61791" lon="4.42935">
        <ele>515</ele>
        <time>2024-04-26T16:40:58Z</time>
      </trkpt>
      <trkpt lat="45.61765" lon="4.42993">
        <ele>517</ele>
        <time>2024-04-26T16:42:02Z</time>
      </trkpt>
      <trkpt lat="45.61754" lon="4.43028">
        <ele>518</ele>
        <time>2024-04-26T16:42:38Z</time>
      </trkpt>
      <trkpt lat="45.61743" lon="4.43065">
        <ele>521</ele>
        <time>2024-04-26T16:43:15Z</time>
      </trkpt>
      <trkpt lat="45.61732" lon="4.43146">
        <ele>531</ele>
        <time>2024-04-26T16:44:32Z</time>
      </trkpt>
      <trkpt lat="45.6174" lon="4.43147">
        <ele>531</ele>
        <time>2024-04-26T16:44:43Z</time>
      </trkpt>
      <trkpt lat="45.61707" lon="4.4338">
        <ele>561</ele>
        <time>2024-04-26T16:48:25Z</time>
      </trkpt>
      <trkpt lat="45.61706" lon="4.43401">
        <ele>564</ele>
        <time>2024-04-26T16:48:44Z</time>
      </trkpt>
      <trkpt lat="45.61678" lon="4.43486">
        <ele>573</ele>
        <time>2024-04-26T16:50:12Z</time>
      </trkpt>
      <trkpt lat="45.61665" lon="4.4355">
        <ele>577</ele>
        <time>2024-04-26T16:51:14Z</time>
      </trkpt>
      <trkpt lat="45.6161" lon="4.43677">
        <ele>591</ele>
        <time>2024-04-26T16:53:34Z</time>
      </trkpt>
      <trkpt lat="45.61598" lon="4.43692">
        <ele>592</ele>
        <time>2024-04-26T16:53:55Z</time>
      </trkpt>
      <trkpt lat="45.61579" lon="4.43709">
        <ele>594</ele>
        <time>2024-04-26T16:54:25Z</time>
      </trkpt>
      <trkpt lat="45.61531" lon="4.4374">
        <ele>597</ele>
        <time>2024-04-26T16:55:35Z</time>
      </trkpt>
      <trkpt lat="45.61497" lon="4.43772">
        <ele>599</ele>
        <time>2024-04-26T16:56:30Z</time>
      </trkpt>
      <trkpt lat="45.61445" lon="4.43853">
        <ele>601</ele>
        <time>2024-04-26T16:58:12Z</time>
      </trkpt>
      <trkpt lat="45.61449" lon="4.43857">
        <ele>601</ele>
        <time>2024-04-26T16:58:19Z</time>
      </trkpt>
      <trkpt lat="45.61479" lon="4.43892">
        <ele>603</ele>
        <time>2024-04-26T16:59:10Z</time>
      </trkpt>
      <trkpt lat="45.61488" lon="4.43912">
        <ele>604</ele>
        <time>2024-04-26T16:59:33Z</time>
      </trkpt>
      <trkpt lat="45.61497" lon="4.43935">
        <ele>605</ele>
        <time>2024-04-26T16:59:57Z</time>
      </trkpt>
      <trkpt lat="45.61504" lon="4.43964">
        <ele>605</ele>
        <time>2024-04-26T17:00:26Z</time>
      </trkpt>
      <trkpt lat="45.61523" lon="4.44068">
        <ele>604</ele>
        <time>2024-04-26T17:02:06Z</time>
      </trkpt>
      <trkpt lat="45.61524" lon="4.44094">
        <ele>604</ele>
        <time>2024-04-26T17:02:30Z</time>
      </trkpt>
      <trkpt lat="45.61521" lon="4.44118">
        <ele>603</ele>
        <time>2024-04-26T17:02:53Z</time>
      </trkpt>
      <trkpt lat="45.61481" lon="4.44194">
        <ele>605</ele>
        <time>2024-04-26T17:04:22Z</time>
      </trkpt>
      <trkpt lat="45.61453" lon="4.44235">
        <ele>605</ele>
        <time>2024-04-26T17:05:15Z</time>
      </trkpt>
      <trkpt lat="45.61439" lon="4.44243">
        <ele>605</ele>
        <time>2024-04-26T17:05:36Z</time>
      </trkpt>
      <trkpt lat="45.61598" lon="4.44407">
        <ele>573</ele>
        <time>2024-04-26T17:09:57Z</time>
      </trkpt>
      <trkpt lat="45.61715" lon="4.44501">
        <ele>543</ele>
        <time>2024-04-26T17:12:56Z</time>
      </trkpt>
      <trkpt lat="45.61815" lon="4.44452">
        <ele>522</ele>
        <time>2024-04-26T17:15:17Z</time>
      </trkpt>
      <trkpt lat="45.61833" lon="4.4449">
        <ele>516</ele>
        <time>2024-04-26T17:16:00Z</time>
      </trkpt>
      <trkpt lat="45.61823" lon="4.44499">
        <ele>518</ele>
        <time>2024-04-26T17:16:16Z</time>
      </trkpt>
      <trkpt lat="45.61782" lon="4.44535">
        <ele>526</ele>
        <time>2024-04-26T17:17:20Z</time>
      </trkpt>
      <trkpt lat="45.61751" lon="4.4463">
        <ele>521</ele>
        <time>2024-04-26T17:18:58Z</time>
      </trkpt>
      <trkpt lat="45.61714" lon="4.44779">
        <ele>511</ele>
        <time>2024-04-26T17:21:26Z</time>
      </trkpt>
      <trkpt lat="45.6165" lon="4.44853">
        <ele>511</ele>
        <time>2024-04-26T17:23:15Z</time>
      </trkpt>
      <trkpt lat="45.61534" lon="4.45179">
        <ele>514</ele>
        <time>2024-04-26T17:28:57Z</time>
      </trkpt>
      <trkpt lat="45.61454" lon="4.45322">
        <ele>524</ele>
        <time>2024-04-26T17:31:48Z</time>
      </trkpt>
      <trkpt lat="45.61313" lon="4.45457">
        <ele>528</ele>
        <time>2024-04-26T17:35:34Z</time>
      </trkpt>
      <trkpt lat="45.61311" lon="4.4546">
        <ele>527</ele>
        <time>2024-04-26T17:35:38Z</time>
      </trkpt>
      <trkpt lat="45.61291" lon="4.45453">
        <ele>529</ele>
        <time>2024-04-26T17:36:06Z</time>
      </trkpt>
      <trkpt lat="45.61267" lon="4.45421">
        <ele>534</ele>
        <time>2024-04-26T17:36:49Z</time>
      </trkpt>
      <trkpt lat="45.61257" lon="4.45415">
        <ele>535</ele>
        <time>2024-04-26T17:37:04Z</time>
      </trkpt>
      <trkpt lat="45.61239" lon="4.45417">
        <ele>535</ele>
        <time>2024-04-26T17:37:28Z</time>
      </trkpt>
      <trkpt lat="45.61213" lon="4.45424">
        <ele>535</ele>
        <time>2024-04-26T17:38:03Z</time>
      </trkpt>
      <trkpt lat="45.61183" lon="4.45442">
        <ele>534</ele>
        <time>2024-04-26T17:38:47Z</time>
      </trkpt>
      <trkpt lat="45.61162" lon="4.4546">
        <ele>533</ele>
        <time>2024-04-26T17:39:19Z</time>
      </trkpt>
      <trkpt lat="45.61131" lon="4.45489">
        <ele>534</ele>
        <time>2024-04-26T17:40:09Z</time>
      </trkpt>
      <trkpt lat="45.61095" lon="4.45532">
        <ele>533</ele>
        <time>2024-04-26T17:41:11Z</time>
      </trkpt>
      <trkpt lat="45.61046" lon="4.45577">
        <ele>535</ele>
        <time>2024-04-26T17:42:29Z</time>
      </trkpt>
      <trkpt lat="45.61004" lon="4.45623">
        <ele>535</ele>
        <time>2024-04-26T17:43:40Z</time>
      </trkpt>
      <trkpt lat="45.60958" lon="4.45659">
        <ele>533</ele>
        <time>2024-04-26T17:44:50Z</time>
      </trkpt>
      <trkpt lat="45.60955" lon="4.45663">
        <ele>533</ele>
        <time>2024-04-26T17:44:55Z</time>
      </trkpt>
      <trkpt lat="45.60989" lon="4.45706">
        <ele>528</ele>
        <time>2024-04-26T17:45:56Z</time>
      </trkpt>
      <trkpt lat="45.60996" lon="4.45723">
        <ele>527</ele>
        <time>2024-04-26T17:46:14Z</time>
      </trkpt>
      <trkpt lat="45.60994" lon="4.45742">
        <ele>526</ele>
        <time>2024-04-26T17:46:32Z</time>
      </trkpt>
      <trkpt lat="45.60977" lon="4.45775">
        <ele>525</ele>
        <time>2024-04-26T17:47:10Z</time>
      </trkpt>
      <trkpt lat="45.60937" lon="4.45889">
        <ele>531</ele>
        <time>2024-04-26T17:49:09Z</time>
      </trkpt>
      <trkpt lat="45.60941" lon="4.45893">
        <ele>531</ele>
        <time>2024-04-26T17:49:16Z</time>
      </trkpt>
      <trkpt lat="45.60937" lon="4.45889">
        <ele>531</ele>
        <time>2024-04-26T17:49:22Z</time>
      </trkpt>
      <trkpt lat="45.60908" lon="4.45903">
        <ele>534</ele>
        <time>2024-04-26T17:50:03Z</time>
      </trkpt>
      <trkpt lat="45.60856" lon="4.45904">
        <ele>539</ele>
        <time>2024-04-26T17:51:13Z</time>
      </trkpt>
      <trkpt lat="45.60779" lon="4.45877">
        <ele>544</ele>
        <time>2024-04-26T17:52:58Z</time>
      </trkpt>
      <trkpt lat="45.60741" lon="4.45886">
        <ele>547</ele>
        <time>2024-04-26T17:53:50Z</time>
      </trkpt>
      <trkpt lat="45.60671" lon="4.45938">
        <ele>552</ele>
        <time>2024-04-26T17:55:35Z</time>
      </trkpt>
      <trkpt lat="45.60657" lon="4.45963">
        <ele>556</ele>
        <time>2024-04-26T17:56:05Z</time>
      </trkpt>
      <trkpt lat="45.6064" lon="4.46024">
        <ele>565</ele>
        <time>2024-04-26T17:57:06Z</time>
      </trkpt>
      <trkpt lat="45.60618" lon="4.46048">
        <ele>568</ele>
        <time>2024-04-26T17:57:43Z</time>
      </trkpt>
      <trkpt lat="45.60598" lon="4.46056">
        <ele>568</ele>
        <time>2024-04-26T17:58:11Z</time>
      </trkpt>
      <trkpt lat="45.60578" lon="4.46053">
        <ele>567</ele>
        <time>2024-04-26T17:58:38Z</time>
      </trkpt>
      <trkpt lat="45.60567" lon="4.46055">
        <ele>568</ele>
        <time>2024-04-26T17:58:53Z</time>
      </trkpt>
      <trkpt lat="45.60568" lon="4.46066">
        <ele>571</ele>
        <time>2024-04-26T17:59:03Z</time>
      </trkpt>
      <trkpt lat="45.60571" lon="4.46068">
        <ele>571</ele>
        <time>2024-04-26T17:59:07Z</time>
      </trkpt>
      <trkpt lat="45.60613" lon="4.46094">
        <ele>575</ele>
        <time>2024-04-26T18:00:08Z</time>
      </trkpt>
      <trkpt lat="45.60656" lon="4.46103">
        <ele>577</ele>
        <time>2024-04-26T18:01:06Z</time>
      </trkpt>
      <trkpt lat="45.60682" lon="4.46099">
        <ele>577</ele>
        <time>2024-04-26T18:01:41Z</time>
      </trkpt>
      <trkpt lat="45.60691" lon="4.46092">
        <ele>576</ele>
        <time>2024-04-26T18:01:55Z</time>
      </trkpt>
      <trkpt lat="45.60696" lon="4.46104">
        <ele>578</ele>
        <time>2024-04-26T18:02:08Z</time>
      </trkpt>
      <trkpt lat="45.60699" lon="4.46137">
        <ele>583</ele>
        <time>2024-04-26T18:02:39Z</time>
      </trkpt>
      <trkpt lat="45.60707" lon="4.46167">
        <ele>588</ele>
        <time>2024-04-26T18:03:09Z</time>
      </trkpt>
      <trkpt lat="45.60773" lon="4.46237">
        <ele>592</ele>
        <time>2024-04-26T18:04:59Z</time>
      </trkpt>
      <trkpt lat="45.6076" lon="4.46285">
        <ele>600</ele>
        <time>2024-04-26T18:05:47Z</time>
      </trkpt>
      <trkpt lat="45.60736" lon="4.46361">
        <ele>612</ele>
        <time>2024-04-26T18:07:05Z</time>
      </trkpt>
      <trkpt lat="45.60759" lon="4.46435">
        <ele>615</ele>
        <time>2024-04-26T18:08:20Z</time>
      </trkpt>
      <trkpt lat="45.60687" lon="4.46475">
        <ele>627</ele>
        <time>2024-04-26T18:10:03Z</time>
      </trkpt>
      <trkpt lat="45.60639" lon="4.46453">
        <ele>630</ele>
        <time>2024-04-26T18:11:11Z</time>
      </trkpt>
      <trkpt lat="45.60565" lon="4.46591">
        <ele>653</ele>
        <time>2024-04-26T18:13:53Z</time>
      </trkpt>
      <trkpt lat="45.60488" lon="4.46641">
        <ele>666</ele>
        <time>2024-04-26T18:15:46Z</time>
      </trkpt>
      <trkpt lat="45.60465" lon="4.46767">
        <ele>678</ele>
        <time>2024-04-26T18:17:47Z</time>
      </trkpt>
      <trkpt lat="45.60456" lon="4.46766">
        <ele>679</ele>
        <time>2024-04-26T18:17:59Z</time>
      </trkpt>
      <trkpt lat="45.60427" lon="4.46776">
        <ele>680</ele>
        <time>2024-04-26T18:18:39Z</time>
      </trkpt>
      <trkpt lat="45.60411" lon="4.46787">
        <ele>682</ele>
        <time>2024-04-26T18:19:03Z</time>
      </trkpt>
      <trkpt lat="45.60401" lon="4.46785">
        <ele>681</ele>
        <time>2024-04-26T18:19:16Z</time>
      </trkpt>
      <trkpt lat="45.60386" lon="4.46787">
        <ele>681</ele>
        <time>2024-04-26T18:19:37Z</time>
      </trkpt>
      <trkpt lat="45.60336" lon="4.46799">
        <ele>681</ele>
        <time>2024-04-26T18:20:44Z</time>
      </trkpt>
      <trkpt lat="45.60309" lon="4.46809">
        <ele>681</ele>
        <time>2024-04-26T18:21:21Z</time>
      </trkpt>
      <trkpt lat="45.60247" lon="4.46827">
        <ele>680</ele>
        <time>2024-04-26T18:22:46Z</time>
      </trkpt>
      <trkpt lat="45.60164" lon="4.46818">
        <ele>670</ele>
        <time>2024-04-26T18:24:37Z</time>
      </trkpt>
      <trkpt lat="45.60142" lon="4.46824">
        <ele>668</ele>
        <time>2024-04-26T18:25:07Z</time>
      </trkpt>
      <trkpt lat="45.60124" lon="4.46833">
        <ele>667</ele>
        <time>2024-04-26T18:25:32Z</time>
      </trkpt>
      <trkpt lat="45.60095" lon="4.46839">
        <ele>664</ele>
        <time>2024-04-26T18:26:11Z</time>
      </trkpt>
      <trkpt lat="45.60063" lon="4.46855">
        <ele>662</ele>
        <time>2024-04-26T18:26:57Z</time>
      </trkpt>
      <trkpt lat="45.60026" lon="4.46881">
        <ele>660</ele>
        <time>2024-04-26T18:27:52Z</time>
      </trkpt>
      <trkpt lat="45.60011" lon="4.46896">
        <ele>659</ele>
        <time>2024-04-26T18:28:16Z</time>
      </trkpt>
      <trkpt lat="45.60002" lon="4.46949">
        <ele>661</ele>
        <time>2024-04-26T18:29:07Z</time>
      </trkpt>
      <trkpt lat="45.60043" lon="4.47057">
        <ele>669</ele>
        <time>2024-04-26T18:31:02Z</time>
      </trkpt>
      <trkpt lat="45.60032" lon="4.4716">
        <ele>677</ele>
        <time>2024-04-26T18:32:39Z</time>
      </trkpt>
      <trkpt lat="45.6011" lon="4.47122">
        <ele>680</ele>
        <time>2024-04-26T18:34:29Z</time>
      </trkpt>
      <trkpt lat="45.60122" lon="4.4711">
        <ele>680</ele>
        <time>2024-04-26T18:34:48Z</time>
      </trkpt>
      <trkpt lat="45.6015" lon="4.47122">
        <ele>684</ele>
        <time>2024-04-26T18:35:27Z</time>
      </trkpt>
      <trkpt lat="45.60155" lon="4.47131">
        <ele>685</ele>
        <time>2024-04-26T18:35:38Z</time>
      </trkpt>
      <trkpt lat="45.60151" lon="4.4715">
        <ele>686</ele>
        <time>2024-04-26T18:35:57Z</time>
      </trkpt>
      <trkpt lat="45.60096" lon="4.47199">
        <ele>686</ele>
        <time>2024-04-26T18:37:23Z</time>
      </trkpt>
      <trkpt lat="45.60065" lon="4.47217">
        <ele>686</ele>
        <time>2024-04-26T18:38:08Z</time>
      </trkpt>
      <trkpt lat="45.60051" lon="4.47232">
        <ele>687</ele>
        <time>2024-04-26T18:38:31Z</time>
      </trkpt>
      <trkpt lat="45.60198" lon="4.47526">
        <ele>727</ele>
        <time>2024-04-26T18:44:09Z</time>
      </trkpt>
      <trkpt lat="45.60112" lon="4.47567">
        <ele>728</ele>
        <time>2024-04-26T18:46:10Z</time>
      </trkpt>
      <trkpt lat="45.60067" lon="4.47676">
        <ele>728</ele>
        <time>2024-04-26T18:48:08Z</time>
      </trkpt>
      <trkpt lat="45.60059" lon="4.47688">
        <ele>728</ele>
        <time>2024-04-26T18:48:23Z</time>
      </trkpt>
      <trkpt lat="45.60072" lon="4.47714">
        <ele>730</ele>
        <time>2024-04-26T18:48:53Z</time>
      </trkpt>
      <trkpt lat="45.60076" lon="4.47733">
        <ele>732</ele>
        <time>2024-04-26T18:49:12Z</time>
      </trkpt>
      <trkpt lat="45.60057" lon="4.47759">
        <ele>732</ele>
        <time>2024-04-26T18:49:47Z</time>
      </trkpt>
      <trkpt lat="45.60059" lon="4.47778">
        <ele>734</ele>
        <time>2024-04-26T18:50:05Z</time>
      </trkpt>
      <trkpt lat="45.60075" lon="4.47818">
        <ele>738</ele>
        <time>2024-04-26T18:50:48Z</time>
      </trkpt>
      <trkpt lat="45.60079" lon="4.47816">
        <ele>738</ele>
        <time>2024-04-26T18:50:53Z</time>
      </trkpt>
      <trkpt lat="45.59876" lon="4.47858">
        <ele>742</ele>
        <time>2024-04-26T18:55:27Z</time>
      </trkpt>
      <trkpt lat="45.59838" lon="4.47833">
        <ele>742</ele>
        <time>2024-04-26T18:56:23Z</time>
      </trkpt>
      <trkpt lat="45.59806" lon="4.47823">
        <ele>739</ele>
        <time>2024-04-26T18:57:07Z</time>
      </trkpt>
      <trkpt lat="45.59786" lon="4.47822">
        <ele>737</ele>
        <time>2024-04-26T18:57:33Z</time>
      </trkpt>
      <trkpt lat="45.5977" lon="4.47825">
        <ele>735</ele>
        <time>2024-04-26T18:57:55Z</time>
      </trkpt>
      <trkpt lat="45.59718" lon="4.4784">
        <ele>728</ele>
        <time>2024-04-26T18:59:06Z</time>
      </trkpt>
      <trkpt lat="45.59707" lon="4.47851">
        <ele>727</ele>
        <time>2024-04-26T18:59:23Z</time>
      </trkpt>
      <trkpt lat="45.59693" lon="4.47851">
        <ele>725</ele>
        <time>2024-04-26T18:59:42Z</time>
      </trkpt>
      <trkpt lat="45.59612" lon="4.47885">
        <ele>712</ele>
        <time>2024-04-26T19:01:35Z</time>
      </trkpt>
      <trkpt lat="45.59581" lon="4.4804">
        <ele>719</ele>
        <time>2024-04-26T19:04:05Z</time>
      </trkpt>
      <trkpt lat="45.59581" lon="4.4805">
        <ele>719</ele>
        <time>2024-04-26T19:04:15Z</time>
      </trkpt>
      <trkpt lat="45.59562" lon="4.48067">
        <ele>719</ele>
        <time>2024-04-26T19:04:45Z</time>
      </trkpt>
      <trkpt lat="45.59538" lon="4.48092">
        <ele>719</ele>
        <time>2024-04-26T19:05:24Z</time>
      </trkpt>
      <trkpt lat="45.59451" lon="4.48199">
        <ele>722</ele>
        <time>2024-04-26T19:07:57Z</time>
      </trkpt>
      <trkpt lat="45.59429" lon="4.48232">
        <ele>724</ele>
        <time>2024-04-26T19:08:40Z</time>
      </trkpt>
      <trkpt lat="45.59426" lon="4.48241">
        <ele>725</ele>
        <time>2024-04-26T19:08:49Z</time>
      </trkpt>
      <trkpt lat="45.59404" lon="4.48298">
        <ele>730</ele>
        <time>2024-04-26T19:09:50Z</time>
      </trkpt>
      <trkpt lat="45.59394" lon="4.48308">
        <ele>729</ele>
        <time>2024-04-26T19:10:06Z</time>
      </trkpt>
      <trkpt lat="45.59388" lon="4.48317">
        <ele>729</ele>
        <time>2024-04-26T19:10:18Z</time>
      </trkpt>
      <trkpt lat="45.59352" lon="4.48395">
        <ele>725</ele>
        <time>2024-04-26T19:11:45Z</time>
      </trkpt>
      <trkpt lat="45.59339" lon="4.48436">
        <ele>723</ele>
        <time>2024-04-26T19:12:27Z</time>
      </trkpt>
      <trkpt lat="45.59335" lon="4.48456">
        <ele>722</ele>
        <time>2024-04-26T19:12:47Z</time>
      </trkpt>
      <trkpt lat="45.59316" lon="4.48542">
        <ele>723</ele>
        <time>2024-04-26T19:14:11Z</time>
      </trkpt>
      <trkpt lat="45.59302" lon="4.48589">
        <ele>724</ele>
        <time>2024-04-26T19:14:59Z</time>
      </trkpt>
      <trkpt lat="45.59255" lon="4.48613">
        <ele>725</ele>
        <time>2024-04-26T19:16:05Z</time>
      </trkpt>
      <trkpt lat="45.59234" lon="4.48607">
        <ele>729</ele>
        <time>2024-04-26T19:16:34Z</time>
      </trkpt>
      <trkpt lat="45.59211" lon="4.48617">
        <ele>736</ele>
        <time>2024-04-26T19:17:06Z</time>
      </trkpt>
      <trkpt lat="45.59172" lon="4.48662">
        <ele>746</ele>
        <time>2024-04-26T19:18:13Z</time>
      </trkpt>
      <trkpt lat="45.59164" lon="4.48702">
        <ele>750</ele>
        <time>2024-04-26T19:18:52Z</time>
      </trkpt>
      <trkpt lat="45.5914" lon="4.48732">
        <ele>758</ele>
        <time>2024-04-26T19:19:34Z</time>
      </trkpt>
      <trkpt lat="45.5913" lon="4.48773">
        <ele>762</ele>
        <time>2024-04-26T19:20:15Z</time>
      </trkpt>
      <trkpt lat="45.59094" lon="4.48893">
        <ele>772</ele>
        <time>2024-04-26T19:22:17Z</time>
      </trkpt>
      <trkpt lat="45.59083" lon="4.48905">
        <ele>774</ele>
        <time>2024-04-26T19:22:35Z</time>
      </trkpt>
      <trkpt lat="45.58989" lon="4.48939">
        <ele>782</ele>
        <time>2024-04-26T19:24:44Z</time>
      </trkpt>
      <trkpt lat="45.58953" lon="4.48947">
        <ele>785</ele>
        <time>2024-04-26T19:25:33Z</time>
      </trkpt>
      <trkpt lat="45.58944" lon="4.48954">
        <ele>786</ele>
        <time>2024-04-26T19:25:47Z</time>
      </trkpt>
      <trkpt lat="45.5891" lon="4.48973">
        <ele>789</ele>
        <time>2024-04-26T19:26:35Z</time>
      </trkpt>
      <trkpt lat="45.5884" lon="4.48989">
        <ele>798</ele>
        <time>2024-04-26T19:28:10Z</time>
      </trkpt>
      <trkpt lat="45.58779" lon="4.48991">
        <ele>805</ele>
        <time>2024-04-26T19:29:32Z</time>
      </trkpt>
      <trkpt lat="45.58722" lon="4.48976">
        <ele>812</ele>
        <time>2024-04-26T19:30:49Z</time>
      </trkpt>
      <trkpt lat="45.58645" lon="4.4895">
        <ele>819</ele>
        <time>2024-04-26T19:32:34Z</time>
      </trkpt>
      <trkpt lat="45.58608" lon="4.48931">
        <ele>822</ele>
        <time>2024-04-26T19:33:27Z</time>
      </trkpt>
      <trkpt lat="45.58559" lon="4.48902">
        <ele>825</ele>
        <time>2024-04-26T19:34:38Z</time>
      </trkpt>
      <trkpt lat="45.58493" lon="4.48878">
        <ele>822</ele>
        <time>2024-04-26T19:36:09Z</time>
      </trkpt>
      <trkpt lat="45.58488" lon="4.48876">
        <ele>821</ele>
        <time>2024-04-26T19:36:15Z</time>
      </trkpt>
      <trkpt lat="45.58478" lon="4.48904">
        <ele>821</ele>
        <time>2024-04-26T19:36:45Z</time>
      </trkpt>
      <trkpt lat="45.58472" lon="4.48914">
        <ele>822</ele>
        <time>2024-04-26T19:36:57Z</time>
      </trkpt>
      <trkpt lat="45.58445" lon="4.48945">
        <ele>824</ele>
        <time>2024-04-26T19:37:43Z</time>
      </trkpt>
      <trkpt lat="45.58433" lon="4.48962">
        <ele>826</ele>
        <time>2024-04-26T19:38:06Z</time>
      </trkpt>
      <trkpt lat="45.58429" lon="4.48972">
        <ele>828</ele>
        <time>2024-04-26T19:38:17Z</time>
      </trkpt>
      <trkpt lat="45.5843" lon="4.48978">
        <ele>829</ele>
        <time>2024-04-26T19:38:22Z</time>
      </trkpt>
      <trkpt lat="45.58433" lon="4.48988">
        <ele>829</ele>
        <time>2024-04-26T19:38:33Z</time>
      </trkpt>
      <trkpt lat="45.58465" lon="4.49025">
        <ele>829</ele>
        <time>2024-04-26T19:39:28Z</time>
      </trkpt>
      <trkpt lat="45.58476" lon="4.49042">
        <ele>829</ele>
        <time>2024-04-26T19:39:49Z</time>
      </trkpt>
      <trkpt lat="45.58483" lon="4.49066">
        <ele>830</ele>
        <time>2024-04-26T19:40:13Z</time>
      </trkpt>
      <trkpt lat="45.5849" lon="4.49112">
        <ele>832</ele>
        <time>2024-04-26T19:40:57Z</time>
      </trkpt>
      <trkpt lat="45.58487" lon="4.49169">
        <ele>834</ele>
        <time>2024-04-26T19:41:51Z</time>
      </trkpt>
      <trkpt lat="45.58487" lon="4.49228">
        <ele>836</ele>
        <time>2024-04-26T19:42:46Z</time>
      </trkpt>
      <trkpt lat="45.5851" lon="4.49348">
        <ele>837</ele>
        <time>2024-04-26T19:44:42Z</time>
      </trkpt>
      <trkpt lat="45.58522" lon="4.49399">
        <ele>840</ele>
        <time>2024-04-26T19:45:32Z</time>
      </trkpt>
      <trkpt lat="45.58519" lon="4.49403">
        <ele>841</ele>
        <time>2024-04-26T19:45:38Z</time>
      </trkpt>
      <trkpt lat="45.58511" lon="4.49417">
        <ele>844</ele>
        <time>2024-04-26T19:45:55Z</time>
      </trkpt>
      <trkpt lat="45.5849" lon="4.49428">
        <ele>848</ele>
        <time>2024-04-26T19:46:25Z</time>
      </trkpt>
      <trkpt lat="45.58449" lon="4.49478">
        <ele>859</ele>
        <time>2024-04-26T19:47:36Z</time>
      </trkpt>
      <trkpt lat="45.58448" lon="4.49503">
        <ele>861</ele>
        <time>2024-04-26T19:48:00Z</time>
      </trkpt>
      <trkpt lat="45.58438" lon="4.49554">
        <ele>866</ele>
        <time>2024-04-26T19:48:49Z</time>
      </trkpt>
      <trkpt lat="45.58433" lon="4.49589">
        <ele>869</ele>
        <time>2024-04-26T19:49:23Z</time>
      </trkpt>
      <trkpt lat="45.58434" lon="4.49611">
        <ele>871</ele>
        <time>2024-04-26T19:49:43Z</time>
      </trkpt>
      <trkpt lat="45.58429" lon="4.49674">
        <ele>877</ele>
        <time>2024-04-26T19:50:42Z</time>
      </trkpt>
      <trkpt lat="45.58449" lon="4.49725">
        <ele>881</ele>
        <time>2024-04-26T19:51:37Z</time>
      </trkpt>
      <trkpt lat="45.58458" lon="4.49758">
        <ele>884</ele>
        <time>2024-04-26T19:52:10Z</time>
      </trkpt>
      <trkpt lat="45.58462" lon="4.49786">
        <ele>886</ele>
        <time>2024-04-26T19:52:37Z</time>
      </trkpt>
      <trkpt lat="45.58485" lon="4.49907">
        <ele>892</ele>
        <time>2024-04-26T19:54:34Z</time>
      </trkpt>
      <trkpt lat="45.58551" lon="4.50125">
        <ele>910</ele>
        <time>2024-04-26T19:58:16Z</time>
      </trkpt>
      <trkpt lat="45.58567" lon="4.5016">
        <ele>912</ele>
        <time>2024-04-26T19:58:55Z</time>
      </trkpt>
      <trkpt lat="45.58598" lon="4.50212">
        <ele>911</ele>
        <time>2024-04-26T19:59:59Z</time>
      </trkpt>
      <trkpt lat="45.5862" lon="4.50261">
        <ele>908</ele>
        <time>2024-04-26T20:00:53Z</time>
      </trkpt>
      <trkpt lat="45.5863" lon="4.50292">
        <ele>907</ele>
        <time>2024-04-26T20:01:25Z</time>
      </trkpt>
      <trkpt lat="45.5864" lon="4.50351">
        <ele>905</ele>
        <time>2024-04-26T20:02:22Z</time>
      </trkpt>
      <trkpt lat="45.58648" lon="4.50379">
        <ele>904</ele>
        <time>2024-04-26T20:02:50Z</time>
      </trkpt>
      <trkpt lat="45.58686" lon="4.5043">
        <ele>901</ele>
        <time>2024-04-26T20:03:59Z</time>
      </trkpt>
      <trkpt lat="45.58717" lon="4.50479">
        <ele>901</ele>
        <time>2024-04-26T20:05:01Z</time>
      </trkpt>
      <trkpt lat="45.58739" lon="4.50501">
        <ele>901</ele>
        <time>2024-04-26T20:05:37Z</time>
      </trkpt>
      <trkpt lat="45.58761" lon="4.50528">
        <ele>902</ele>
        <time>2024-04-26T20:06:16Z</time>
      </trkpt>
      <trkpt lat="45.58773" lon="4.50546">
        <ele>903</ele>
        <time>2024-04-26T20:06:39Z</time>
      </trkpt>
      <trkpt lat="45.58788" lon="4.50574">
        <ele>904</ele>
        <time>2024-04-26T20:07:12Z</time>
      </trkpt>
      <trkpt lat="45.58803" lon="4.50609">
        <ele>904</ele>
        <time>2024-04-26T20:07:50Z</time>
      </trkpt>
      <trkpt lat="45.58808" lon="4.50624">
        <ele>904</ele>
        <time>2024-04-26T20:08:06Z</time>
      </trkpt>
      <trkpt lat="45.58803" lon="4.50609">
        <ele>904</ele>
        <time>2024-04-26T20:08:21Z</time>
      </trkpt>
      <trkpt lat="45.58807" lon="4.50604">
        <ele>904</ele>
        <time>2024-04-26T20:08:28Z</time>
      </trkpt>
      <trkpt lat="45.58816" lon="4.50584">
        <ele>904</ele>
        <time>2024-04-26T20:08:50Z</time>
      </trkpt>
      <trkpt lat="45.58822" lon="4.50565">
        <ele>904</ele>
        <time>2024-04-26T20:09:10Z</time>
      </trkpt>
      <trkpt lat="45.58829" lon="4.50535">
        <ele>903</ele>
        <time>2024-04-26T20:09:39Z</time>
      </trkpt>
      <trkpt lat="45.58846" lon="4.50416">
        <ele>899</ele>
        <time>2024-04-26T20:11:33Z</time>
      </trkpt>
      <trkpt lat="45.58861" lon="4.50383">
        <ele>897</ele>
        <time>2024-04-26T20:12:10Z</time>
      </trkpt>
      <trkpt lat="45.58886" lon="4.50335">
        <ele>895</ele>
        <time>2024-04-26T20:13:05Z</time>
      </trkpt>
      <trkpt lat="45.58895" lon="4.50322">
        <ele>894</ele>
        <time>2024-04-26T20:13:23Z</time>
      </trkpt>
      <trkpt lat="45.58962" lon="4.50248">
        <ele>889</ele>
        <time>2024-04-26T20:15:16Z</time>
      </trkpt>
      <trkpt lat="45.59016" lon="4.50191">
        <ele>883</ele>
        <time>2024-04-26T20:16:45Z</time>
      </trkpt>
      <trkpt lat="45.59054" lon="4.50125">
        <ele>877</ele>
        <time>2024-04-26T20:18:05Z</time>
      </trkpt>
      <trkpt lat="45.59085" lon="4.50089">
        <ele>875</ele>
        <time>2024-04-26T20:18:58Z</time>
      </trkpt>
      <trkpt lat="45.59107" lon="4.50074">
        <ele>872</ele>
        <time>2024-04-26T20:19:31Z</time>
      </trkpt>
      <trkpt lat="45.59133" lon="4.5006">
        <ele>869</ele>
        <time>2024-04-26T20:20:08Z</time>
      </trkpt>
      <trkpt lat="45.59167" lon="4.50029">
        <ele>863</ele>
        <time>2024-04-26T20:21:02Z</time>
      </trkpt>
      <trkpt lat="45.59201" lon="4.50017">
        <ele>861</ele>
        <time>2024-04-26T20:21:48Z</time>
      </trkpt>
      <trkpt lat="45.59262" lon="4.49986">
        <ele>855</ele>
        <time>2024-04-26T20:23:15Z</time>
      </trkpt>
      <trkpt lat="45.59297" lon="4.49957">
        <ele>850</ele>
        <time>2024-04-26T20:24:09Z</time>
      </trkpt>
      <trkpt lat="45.59313" lon="4.49942">
        <ele>847</ele>
        <time>2024-04-26T20:24:34Z</time>
      </trkpt>
      <trkpt lat="45.59365" lon="4.49913">
        <ele>841</ele>
        <time>2024-04-26T20:25:49Z</time>
      </trkpt>
      <trkpt lat="45.59389" lon="4.49884">
        <ele>835</ele>
        <time>2024-04-26T20:26:31Z</time>
      </trkpt>
      <trkpt lat="45.59417" lon="4.49862">
        <ele>831</ele>
        <time>2024-04-26T20:27:13Z</time>
      </trkpt>
      <trkpt lat="45.59464" lon="4.49848">
        <ele>826</ele>
        <time>2024-04-26T20:28:17Z</time>
      </trkpt>
      <trkpt lat="45.59527" lon="4.49853">
        <ele>822</ele>
        <time>2024-04-26T20:29:42Z</time>
      </trkpt>
      <trkpt lat="45.59533" lon="4.4984">
        <ele>821</ele>
        <time>2024-04-26T20:29:56Z</time>
      </trkpt>
      <trkpt lat="45.5954" lon="4.49824">
        <ele>821</ele>
        <time>2024-04-26T20:30:14Z</time>
      </trkpt>
      <trkpt lat="45.59551" lon="4.49785">
        <ele>823</ele>
        <time>2024-04-26T20:30:53Z</time>
      </trkpt>
      <trkpt lat="45.59556" lon="4.49745">
        <ele>826</ele>
        <time>2024-04-26T20:31:31Z</time>
      </trkpt>
      <trkpt lat="45.59562" lon="4.49653">
        <ele>829</ele>
        <time>2024-04-26T20:32:57Z</time>
      </trkpt>
      <trkpt lat="45.59565" lon="4.49637">
        <ele>830</ele>
        <time>2024-04-26T20:33:13Z</time>
      </trkpt>
      <trkpt lat="45.59566" lon="4.49531">
        <ele>835</ele>
        <time>2024-04-26T20:34:52Z</time>
      </trkpt>
      <trkpt lat="45.59568" lon="4.49496">
        <ele>836</ele>
        <time>2024-04-26T20:35:25Z</time>
      </trkpt>
      <trkpt lat="45.59578" lon="4.49472">
        <ele>836</ele>
        <time>2024-04-26T20:35:51Z</time>
      </trkpt>
      <trkpt lat="45.5959" lon="4.49436">
        <ele>834</ele>
        <time>2024-04-26T20:36:28Z</time>
      </trkpt>
      <trkpt lat="45.59618" lon="4.4938">
        <ele>826</ele>
        <time>2024-04-26T20:37:32Z</time>
      </trkpt>
      <trkpt lat="45.59648" lon="4.49337">
        <ele>820</ele>
        <time>2024-04-26T20:38:29Z</time>
      </trkpt>
      <trkpt lat="45.59671" lon="4.49312">
        <ele>816</ele>
        <time>2024-04-26T20:39:07Z</time>
      </trkpt>
      <trkpt lat="45.59736" lon="4.49235">
        <ele>805</ele>
        <time>2024-04-26T20:41:00Z</time>
      </trkpt>
      <trkpt lat="45.59766" lon="4.49171">
        <ele>797</ele>
        <time>2024-04-26T20:42:12Z</time>
      </trkpt>
      <trkpt lat="45.59836" lon="4.49273">
        <ele>800</ele>
        <time>2024-04-26T20:44:25Z</time>
      </trkpt>
      <trkpt lat="45.59849" lon="4.49378">
        <ele>800</ele>
        <time>2024-04-26T20:46:05Z</time>
      </trkpt>
      <trkpt lat="45.60013" lon="4.498">
        <ele>791</ele>
        <time>2024-04-26T20:53:36Z</time>
      </trkpt>
      <trkpt lat="45.60251" lon="4.49995">
        <ele>738</ele>
        <time>2024-04-26T20:59:42Z</time>
      </trkpt>
      <trkpt lat="45.60166" lon="4.50114">
        <ele>740</ele>
        <time>2024-04-26T21:02:21Z</time>
      </trkpt>
      <trkpt lat="45.60144" lon="4.5012">
        <ele>744</ele>
        <time>2024-04-26T21:02:50Z</time>
      </trkpt>
      <trkpt lat="45.60131" lon="4.50127">
        <ele>746</ele>
        <time>2024-04-26T21:03:09Z</time>
      </trkpt>
      <trkpt lat="45.60111" lon="4.50156">
        <ele>745</ele>
        <time>2024-04-26T21:03:47Z</time>
      </trkpt>
      <trkpt lat="45.60109" lon="4.50185">
        <ele>743</ele>
        <time>2024-04-26T21:04:14Z</time>
      </trkpt>
      <trkpt lat="45.60121" lon="4.50199">
        <ele>740</ele>
        <time>2024-04-26T21:04:35Z</time>
      </trkpt>
      <trkpt lat="45.60128" lon="4.50202">
        <ele>738</ele>
        <time>2024-04-26T21:04:45Z</time>
      </trkpt>
      <trkpt lat="45.60135" lon="4.50211">
        <ele>737</ele>
        <time>2024-04-26T21:04:57Z</time>
      </trkpt>
      <trkpt lat="45.60151" lon="4.50222">
        <ele>735</ele>
        <time>2024-04-26T21:05:21Z</time>
      </trkpt>
      <trkpt lat="45.60414" lon="4.50357">
        <ele>730</ele>
        <time>2024-04-26T21:11:34Z</time>
      </trkpt>
      <trkpt lat="45.60454" lon="4.50365">
        <ele>731</ele>
        <time>2024-04-26T21:12:28Z</time>
      </trkpt>
      <trkpt lat="45.60487" lon="4.50365">
        <ele>730</ele>
        <time>2024-04-26T21:13:12Z</time>
      </trkpt>
      <trkpt lat="45.60511" lon="4.50352">
        <ele>729</ele>
        <time>2024-04-26T21:13:46Z</time>
      </trkpt>
      <trkpt lat="45.60506" lon="4.50352">
        <ele>729</ele>
        <time>2024-04-26T21:13:53Z</time>
      </trkpt>
      <trkpt lat="45.60507" lon="4.50351">
        <ele>729</ele>
        <time>2024-04-26T21:13:54Z</time>
      </trkpt>
      <trkpt lat="45.60566" lon="4.50208">
        <ele>713</ele>
        <time>2024-04-26T21:16:29Z</time>
      </trkpt>
      <trkpt lat="45.60579" lon="4.50195">
        <ele>713</ele>
        <time>2024-04-26T21:16:50Z</time>
      </trkpt>
      <trkpt lat="45.60637" lon="4.50134">
        <ele>710</ele>
        <time>2024-04-26T21:18:27Z</time>
      </trkpt>
      <trkpt lat="45.60701" lon="4.5008">
        <ele>706</ele>
        <time>2024-04-26T21:20:06Z</time>
      </trkpt>
      <trkpt lat="45.6076" lon="4.50097">
        <ele>705</ele>
        <time>2024-04-26T21:21:26Z</time>
      </trkpt>
      <trkpt lat="45.60808" lon="4.50131">
        <ele>701</ele>
        <time>2024-04-26T21:22:37Z</time>
      </trkpt>
      <trkpt lat="45.60809" lon="4.50155">
        <ele>703</ele>
        <time>2024-04-26T21:23:00Z</time>
      </trkpt>
      <trkpt lat="45.60797" lon="4.50181">
        <ele>706</ele>
        <time>2024-04-26T21:23:29Z</time>
      </trkpt>
      <trkpt lat="45.60777" lon="4.5021">
        <ele>709</ele>
        <time>2024-04-26T21:24:07Z</time>
      </trkpt>
      <trkpt lat="45.60764" lon="4.5026">
        <ele>712</ele>
        <time>2024-04-26T21:24:57Z</time>
      </trkpt>
      <trkpt lat="45.6076" lon="4.50283">
        <ele>713</ele>
        <time>2024-04-26T21:25:19Z</time>
      </trkpt>
      <trkpt lat="45.60775" lon="4.50291">
        <ele>712</ele>
        <time>2024-04-26T21:25:40Z</time>
      </trkpt>
      <trkpt lat="45.60803" lon="4.50276">
        <ele>708</ele>
        <time>2024-04-26T21:26:20Z</time>
      </trkpt>
      <trkpt lat="45.60837" lon="4.50261">
        <ele>701</ele>
        <time>2024-04-26T21:27:08Z</time>
      </trkpt>
      <trkpt lat="45.6087" lon="4.50261">
        <ele>698</ele>
        <time>2024-04-26T21:27:52Z</time>
      </trkpt>
      <trkpt lat="45.60896" lon="4.50253">
        <ele>694</ele>
        <time>2024-04-26T21:28:27Z</time>
      </trkpt>
      <trkpt lat="45.60927" lon="4.50237">
        <ele>690</ele>
        <time>2024-04-26T21:29:11Z</time>
      </trkpt>
      <trkpt lat="45.60994" lon="4.50236">
        <ele>690</ele>
        <time>2024-04-26T21:30:41Z</time>
      </trkpt>
      <trkpt lat="45.61041" lon="4.50227">
        <ele>693</ele>
        <time>2024-04-26T21:31:44Z</time>
      </trkpt>
      <trkpt lat="45.61084" lon="4.50214">
        <ele>696</ele>
        <time>2024-04-26T21:32:43Z</time>
      </trkpt>
      <trkpt lat="45.61117" lon="4.50188">
        <ele>697</ele>
        <time>2024-04-26T21:33:33Z</time>
      </trkpt>
      <trkpt lat="45.61154" lon="4.50149">
        <ele>697</ele>
        <time>2024-04-26T21:34:34Z</time>
      </trkpt>
      <trkpt lat="45.61171" lon="4.50136">
        <ele>697</ele>
        <time>2024-04-26T21:35:00Z</time>
      </trkpt>
      <trkpt lat="45.61182" lon="4.50132">
        <ele>697</ele>
        <time>2024-04-26T21:35:15Z</time>
      </trkpt>
      <trkpt lat="45.61184" lon="4.5014">
        <ele>697</ele>
        <time>2024-04-26T21:35:23Z</time>
      </trkpt>
      <trkpt lat="45.61204" lon="4.50115">
        <ele>697</ele>
        <time>2024-04-26T21:35:58Z</time>
      </trkpt>
      <trkpt lat="45.61184" lon="4.5014">
        <ele>697</ele>
        <time>2024-04-26T21:36:34Z</time>
      </trkpt>
      <trkpt lat="45.61182" lon="4.50132">
        <ele>697</ele>
        <time>2024-04-26T21:36:42Z</time>
      </trkpt>
      <trkpt lat="45.61165" lon="4.50023">
        <ele>693</ele>
        <time>2024-04-26T21:38:26Z</time>
      </trkpt>
      <trkpt lat="45.61161" lon="4.50002">
        <ele>692</ele>
        <time>2024-04-26T21:38:46Z</time>
      </trkpt>
      <trkpt lat="45.61157" lon="4.4999">
        <ele>691</ele>
        <time>2024-04-26T21:38:59Z</time>
      </trkpt>
      <trkpt lat="45.61149" lon="4.4998">
        <ele>690</ele>
        <time>2024-04-26T21:39:13Z</time>
      </trkpt>
      <trkpt lat="45.61137" lon="4.49972">
        <ele>689</ele>
        <time>2024-04-26T21:39:31Z</time>
      </trkpt>
      <trkpt lat="45.61128" lon="4.49968">
        <ele>689</ele>
        <time>2024-04-26T21:39:43Z</time>
      </trkpt>
      <trkpt lat="45.61115" lon="4.49968">
        <ele>689</ele>
        <time>2024-04-26T21:40:01Z</time>
      </trkpt>
      <trkpt lat="45.61117" lon="4.49966">
        <ele>688</ele>
        <time>2024-04-26T21:40:04Z</time>
      </trkpt>
      <trkpt lat="45.61145" lon="4.49939">
        <ele>687</ele>
        <time>2024-04-26T21:40:49Z</time>
      </trkpt>
      <trkpt lat="45.61155" lon="4.49924">
        <ele>686</ele>
        <time>2024-04-26T21:41:08Z</time>
      </trkpt>
      <trkpt lat="45.61155" lon="4.49901">
        <ele>684</ele>
        <time>2024-04-26T21:41:30Z</time>
      </trkpt>
      <trkpt lat="45.61159" lon="4.49861">
        <ele>680</ele>
        <time>2024-04-26T21:42:07Z</time>
      </trkpt>
      <trkpt lat="45.61159" lon="4.49845">
        <ele>679</ele>
        <time>2024-04-26T21:42:22Z</time>
      </trkpt>
      <trkpt lat="45.61158" lon="4.49801">
        <ele>675</ele>
        <time>2024-04-26T21:43:03Z</time>
      </trkpt>
      <trkpt lat="45.61123" lon="4.49621">
        <ele>661</ele>
        <time>2024-04-26T21:45:58Z</time>
      </trkpt>
      <trkpt lat="45.61114" lon="4.49549">
        <ele>654</ele>
        <time>2024-04-26T21:47:06Z</time>
      </trkpt>
      <trkpt lat="45.61093" lon="4.49435">
        <ele>639</ele>
        <time>2024-04-26T21:48:56Z</time>
      </trkpt>
      <trkpt lat="45.61087" lon="4.49369">
        <ele>629</ele>
        <time>2024-04-26T21:49:58Z</time>
      </trkpt>
      <trkpt lat="45.61087" lon="4.49349">
        <ele>626</ele>
        <time>2024-04-26T21:50:17Z</time>
      </trkpt>
      <trkpt lat="45.61094" lon="4.49304">
        <ele>621</ele>
        <time>2024-04-26T21:51:00Z</time>
      </trkpt>
      <trkpt lat="45.61112" lon="4.4925">
        <ele>616</ele>
        <time>2024-04-26T21:51:56Z</time>
      </trkpt>
      <trkpt lat="45.61113" lon="4.49244">
        <ele>615</ele>
        <time>2024-04-26T21:52:02Z</time>
      </trkpt>
      <trkpt lat="45.61086" lon="4.49193">
        <ele>611</ele>
        <time>2024-04-26T21:53:01Z</time>
      </trkpt>
      <trkpt lat="45.61085" lon="4.49179">
        <ele>610</ele>
        <time>2024-04-26T21:53:14Z</time>
      </trkpt>
      <trkpt lat="45.61086" lon="4.49161">
        <ele>610</ele>
        <time>2024-04-26T21:53:31Z</time>
      </trkpt>
      <trkpt lat="45.61101" lon="4.49099">
        <ele>607</ele>
        <time>2024-04-26T21:54:33Z</time>
      </trkpt>
      <trkpt lat="45.61098" lon="4.4907">
        <ele>606</ele>
        <time>2024-04-26T21:55:00Z</time>
      </trkpt>
      <trkpt lat="45.61089" lon="4.49034">
        <ele>605</ele>
        <time>2024-04-26T21:55:36Z</time>
      </trkpt>
      <trkpt lat="45.61087" lon="4.49014">
        <ele>604</ele>
        <time>2024-04-26T21:55:54Z</time>
      </trkpt>
      <trkpt lat="45.61086" lon="4.4899">
        <ele>604</ele>
        <time>2024-04-26T21:56:17Z</time>
      </trkpt>
      <trkpt lat="45.61092" lon="4.4891">
        <ele>608</ele>
        <time>2024-04-26T21:57:32Z</time>
      </trkpt>
      <trkpt lat="45.61086" lon="4.4877">
        <ele>615</ele>
        <time>2024-04-26T21:59:43Z</time>
      </trkpt>
      <trkpt lat="45.61091" lon="4.48736">
        <ele>618</ele>
        <time>2024-04-26T22:00:15Z</time>
      </trkpt>
      <trkpt lat="45.61099" lon="4.48717">
        <ele>620</ele>
        <time>2024-04-26T22:00:36Z</time>
      </trkpt>
      <trkpt lat="45.61114" lon="4.487">
        <ele>622</ele>
        <time>2024-04-26T22:01:02Z</time>
      </trkpt>
      <trkpt lat="45.61142" lon="4.4866">
        <ele>627</ele>
        <time>2024-04-26T22:01:54Z</time>
      </trkpt>
      <trkpt lat="45.61149" lon="4.48641">
        <ele>627</ele>
        <time>2024-04-26T22:02:14Z</time>
      </trkpt>
      <trkpt lat="45.61154" lon="4.4861">
        <ele>627</ele>
        <time>2024-04-26T22:02:44Z</time>
      </trkpt>
      <trkpt lat="45.61154" lon="4.4858">
        <ele>628</ele>
        <time>2024-04-26T22:03:12Z</time>
      </trkpt>
      <trkpt lat="45.61148" lon="4.48549">
        <ele>627</ele>
        <time>2024-04-26T22:03:42Z</time>
      </trkpt>
      <trkpt lat="45.61136" lon="4.48517">
        <ele>627</ele>
        <time>2024-04-26T22:04:16Z</time>
      </trkpt>
      <trkpt lat="45.61125" lon="4.48478">
        <ele>626</ele>
        <time>2024-04-26T22:04:55Z</time>
      </trkpt>
      <trkpt lat="45.61119" lon="4.4845">
        <ele>625</ele>
        <time>2024-04-26T22:05:23Z</time>
      </trkpt>
      <trkpt lat="45.61126" lon="4.48447">
        <ele>624</ele>
        <time>2024-04-26T22:05:32Z</time>
      </trkpt>
      <trkpt lat="45.61119" lon="4.4845">
        <ele>625</ele>
        <time>2024-04-26T22:05:42Z</time>
      </trkpt>
      <trkpt lat="45.61114" lon="4.48429">
        <ele>624</ele>
        <time>2024-04-26T22:06:03Z</time>
      </trkpt>
      <trkpt lat="45.61108" lon="4.48412">
        <ele>624</ele>
        <time>2024-04-26T22:06:21Z</time>
      </trkpt>
      <trkpt lat="45.61082" lon="4.48357">
        <ele>627</ele>
        <time>2024-04-26T22:07:23Z</time>
      </trkpt>
      <trkpt lat="45.6108" lon="4.4833">
        <ele>627</ele>
        <time>2024-04-26T22:07:48Z</time>
      </trkpt>
      <trkpt lat="45.61091" lon="4.48254">
        <ele>632</ele>
        <time>2024-04-26T22:09:00Z</time>
      </trkpt>
      <trkpt lat="45.61108" lon="4.48252">
        <ele>630</ele>
        <time>2024-04-26T22:09:23Z</time>
      </trkpt>
      <trkpt lat="45.61118" lon="4.48251">
        <ele>629</ele>
        <time>2024-04-26T22:09:37Z</time>
      </trkpt>
      <trkpt lat="45.61139" lon="4.48224">
        <ele>630</ele>
        <time>2024-04-26T22:10:14Z</time>
      </trkpt>
      <trkpt lat="45.61153" lon="4.48202">
        <ele>631</ele>
        <time>2024-04-26T22:10:42Z</time>
      </trkpt>
      <trkpt lat="45.61191" lon="4.48168">
        <ele>632</ele>
        <time>2024-04-26T22:11:42Z</time>
      </trkpt>
      <trkpt lat="45.61211" lon="4.48142">
        <ele>632</ele>
        <time>2024-04-26T22:12:18Z</time>
      </trkpt>
      <trkpt lat="45.6124" lon="4.48121">
        <ele>631</ele>
        <time>2024-04-26T22:13:01Z</time>
      </trkpt>
      <trkpt lat="45.61254" lon="4.48086">
        <ele>634</ele>
        <time>2024-04-26T22:13:39Z</time>
      </trkpt>
      <trkpt lat="45.61286" lon="4.4807">
        <ele>635</ele>
        <time>2024-04-26T22:14:24Z</time>
      </trkpt>
      <trkpt lat="45.61316" lon="4.48069">
        <ele>634</ele>
        <time>2024-04-26T22:15:04Z</time>
      </trkpt>
      <trkpt lat="45.61331" lon="4.48059">
        <ele>635</ele>
        <time>2024-04-26T22:15:26Z</time>
      </trkpt>
      <trkpt lat="45.6134" lon="4.48068">
        <ele>633</ele>
        <time>2024-04-26T22:15:41Z</time>
      </trkpt>
      <trkpt lat="45.61344" lon="4.48072">
        <ele>632</ele>
        <time>2024-04-26T22:15:48Z</time>
      </trkpt>
      <trkpt lat="45.61346" lon="4.48095">
        <ele>629</ele>
        <time>2024-04-26T22:16:09Z</time>
      </trkpt>
      <trkpt lat="45.61355" lon="4.48103">
        <ele>627</ele>
        <time>2024-04-26T22:16:23Z</time>
      </trkpt>
      <trkpt lat="45.61394" lon="4.48117">
        <ele>621</ele>
        <time>2024-04-26T22:17:17Z</time>
      </trkpt>
      <trkpt lat="45.61407" lon="4.48119">
        <ele>619</ele>
        <time>2024-04-26T22:17:34Z</time>
      </trkpt>
      <trkpt lat="45.61455" lon="4.48142">
        <ele>613</ele>
        <time>2024-04-26T22:18:42Z</time>
      </trkpt>
      <trkpt lat="45.61476" lon="4.48139">
        <ele>612</ele>
        <time>2024-04-26T22:19:10Z</time>
      </trkpt>
      <trkpt lat="45.61497" lon="4.4814">
        <ele>610</ele>
        <time>2024-04-26T22:19:38Z</time>
      </trkpt>
      <trkpt lat="45.61508" lon="4.48128">
        <ele>609</ele>
        <time>2024-04-26T22:19:57Z</time>
      </trkpt>
      <trkpt lat="45.61539" lon="4.48061">
        <ele>609</ele>
        <time>2024-04-26T22:21:12Z</time>
      </trkpt>
      <trkpt lat="45.61541" lon="4.48032">
        <ele>611</ele>
        <time>2024-04-26T22:21:39Z</time>
      </trkpt>
      <trkpt lat="45.6155" lon="4.47981">
        <ele>613</ele>
        <time>2024-04-26T22:22:28Z</time>
      </trkpt>
      <trkpt lat="45.61564" lon="4.47933">
        <ele>615</ele>
        <time>2024-04-26T22:23:16Z</time>
      </trkpt>
      <trkpt lat="45.61593" lon="4.47905">
        <ele>614</ele>
        <time>2024-04-26T22:24:03Z</time>
      </trkpt>
      <trkpt lat="45.61609" lon="4.47856">
        <ele>617</ele>
        <time>2024-04-26T22:24:54Z</time>
      </trkpt>
      <trkpt lat="45.61619" lon="4.47835">
        <ele>618</ele>
        <time>2024-04-26T22:25:17Z</time>
      </trkpt>
      <trkpt lat="45.6165" lon="4.47784">
        <ele>621</ele>
        <time>2024-04-26T22:26:20Z</time>
      </trkpt>
      <trkpt lat="45.61664" lon="4.47752">
        <ele>622</ele>
        <time>2024-04-26T22:26:56Z</time>
      </trkpt>
      <trkpt lat="45.61663" lon="4.47745">
        <ele>622</ele>
        <time>2024-04-26T22:27:02Z</time>
      </trkpt>
      <trkpt lat="45.6166" lon="4.47736">
        <ele>622</ele>
        <time>2024-04-26T22:27:12Z</time>
      </trkpt>
      <trkpt lat="45.61615" lon="4.47693">
        <ele>626</ele>
        <time>2024-04-26T22:28:24Z</time>
      </trkpt>
      <trkpt lat="45.61588" lon="4.47661">
        <ele>628</ele>
        <time>2024-04-26T22:29:11Z</time>
      </trkpt>
      <trkpt lat="45.61585" lon="4.4765">
        <ele>628</ele>
        <time>2024-04-26T22:29:22Z</time>
      </trkpt>
      <trkpt lat="45.61587" lon="4.47648">
        <ele>628</ele>
        <time>2024-04-26T22:29:25Z</time>
      </trkpt>
      <trkpt lat="45.61615" lon="4.47599">
        <ele>624</ele>
        <time>2024-04-26T22:30:24Z</time>
      </trkpt>
      <trkpt lat="45.61629" lon="4.47563">
        <ele>622</ele>
        <time>2024-04-26T22:31:02Z</time>
      </trkpt>
      <trkpt lat="45.61679" lon="4.47472">
        <ele>614</ele>
        <time>2024-04-26T22:32:50Z</time>
      </trkpt>
      <trkpt lat="45.61679" lon="4.4744">
        <ele>613</ele>
        <time>2024-04-26T22:33:20Z</time>
      </trkpt>
      <trkpt lat="45.61683" lon="4.47416">
        <ele>612</ele>
        <time>2024-04-26T22:33:43Z</time>
      </trkpt>
      <trkpt lat="45.6171" lon="4.47365">
        <ele>610</ele>
        <time>2024-04-26T22:34:43Z</time>
      </trkpt>
      <trkpt lat="45.61756" lon="4.47343">
        <ele>604</ele>
        <time>2024-04-26T22:35:48Z</time>
      </trkpt>
      <trkpt lat="45.61767" lon="4.47332">
        <ele>603</ele>
        <time>2024-04-26T22:36:06Z</time>
      </trkpt>
      <trkpt lat="45.61799" lon="4.47315">
        <ele>601</ele>
        <time>2024-04-26T22:36:51Z</time>
      </trkpt>
      <trkpt lat="45.6183" lon="4.47277">
        <ele>600</ele>
        <time>2024-04-26T22:37:46Z</time>
      </trkpt>
      <trkpt lat="45.61846" lon="4.4727">
        <ele>598</ele>
        <time>2024-04-26T22:38:08Z</time>
      </trkpt>
      <trkpt lat="45.61858" lon="4.4726">
        <ele>598</ele>
        <time>2024-04-26T22:38:27Z</time>
      </trkpt>
      <trkpt lat="45.61888" lon="4.47255">
        <ele>595</ele>
        <time>2024-04-26T22:39:07Z</time>
      </trkpt>
      <trkpt lat="45.61899" lon="4.47251">
        <ele>595</ele>
        <time>2024-04-26T22:39:22Z</time>
      </trkpt>
      <trkpt lat="45.61908" lon="4.47243">
        <ele>595</ele>
        <time>2024-04-26T22:39:36Z</time>
      </trkpt>
      <trkpt lat="45.6197" lon="4.47171">
        <ele>593</ele>
        <time>2024-04-26T22:41:23Z</time>
      </trkpt>
      <trkpt lat="45.61994" lon="4.47129">
        <ele>594</ele>
        <time>2024-04-26T22:42:13Z</time>
      </trkpt>
      <trkpt lat="45.62006" lon="4.47103">
        <ele>596</ele>
        <time>2024-04-26T22:42:42Z</time>
      </trkpt>
      <trkpt lat="45.62021" lon="4.47103">
        <ele>595</ele>
        <time>2024-04-26T22:43:02Z</time>
      </trkpt>
      <trkpt lat="45.62058" lon="4.47122">
        <ele>592</ele>
        <time>2024-04-26T22:43:55Z</time>
      </trkpt>
      <trkpt lat="45.62103" lon="4.47139">
        <ele>585</ele>
        <time>2024-04-26T22:44:57Z</time>
      </trkpt>
      <trkpt lat="45.62141" lon="4.47125">
        <ele>580</ele>
        <time>2024-04-26T22:45:49Z</time>
      </trkpt>
      <trkpt lat="45.62195" lon="4.47048">
        <ele>576</ele>
        <time>2024-04-26T22:47:31Z</time>
      </trkpt>
      <trkpt lat="45.62259" lon="4.46978">
        <ele>569</ele>
        <time>2024-04-26T22:49:19Z</time>
      </trkpt>
      <trkpt lat="45.62276" lon="4.46962">
        <ele>568</ele>
        <time>2024-04-26T22:49:46Z</time>
      </trkpt>
      <trkpt lat="45.62343" lon="4.46908">
        <ele>565</ele>
        <time>2024-04-26T22:51:29Z</time>
      </trkpt>
      <trkpt lat="45.62368" lon="4.46875">
        <ele>564</ele>
        <time>2024-04-26T22:52:14Z</time>
      </trkpt>
      <trkpt lat="45.62427" lon="4.46779">
        <ele>561</ele>
        <time>2024-04-26T22:54:13Z</time>
      </trkpt>
      <trkpt lat="45.62441" lon="4.46746">
        <ele>561</ele>
        <time>2024-04-26T22:54:49Z</time>
      </trkpt>
      <trkpt lat="45.62472" lon="4.46612">
        <ele>552</ele>
        <time>2024-04-26T22:57:01Z</time>
      </trkpt>
      <trkpt lat="45.62485" lon="4.46561">
        <ele>545</ele>
        <time>2024-04-26T22:57:52Z</time>
      </trkpt>
      <trkpt lat="45.62498" lon="4.46526">
        <ele>539</ele>
        <time>2024-04-26T22:58:29Z</time>
      </trkpt>
      <trkpt lat="45.625" lon="4.46525">
        <ele>539</ele>
        <time>2024-04-26T22:58:31Z</time>
      </trkpt>
      <trkpt lat="45.62536" lon="4.46491">
        <ele>529</ele>
        <time>2024-04-26T22:59:29Z</time>
      </trkpt>
      <trkpt lat="45.62547" lon="4.46486">
        <ele>526</ele>
        <time>2024-04-26T22:59:44Z</time>
      </trkpt>
      <trkpt lat="45.62597" lon="4.46477">
        <ele>518</ele>
        <time>2024-04-26T23:00:52Z</time>
      </trkpt>
      <trkpt lat="45.62616" lon="4.46478">
        <ele>517</ele>
        <time>2024-04-26T23:01:17Z</time>
      </trkpt>
      <trkpt lat="45.62632" lon="4.46478">
        <ele>516</ele>
        <time>2024-04-26T23:01:38Z</time>
      </trkpt>
      <trkpt lat="45.6265" lon="4.46472">
        <ele>515</ele>
        <time>2024-04-26T23:02:03Z</time>
      </trkpt>
      <trkpt lat="45.62667" lon="4.46462">
        <ele>514</ele>
        <time>2024-04-26T23:02:28Z</time>
      </trkpt>
      <trkpt lat="45.62681" lon="4.46444">
        <ele>515</ele>
        <time>2024-04-26T23:02:53Z</time>
      </trkpt>
      <trkpt lat="45.62704" lon="4.46395">
        <ele>518</ele>
        <time>2024-04-26T23:03:48Z</time>
      </trkpt>
      <trkpt lat="45.62722" lon="4.46365">
        <ele>520</ele>
        <time>2024-04-26T23:04:25Z</time>
      </trkpt>
      <trkpt lat="45.6272" lon="4.4635">
        <ele>519</ele>
        <time>2024-04-26T23:04:39Z</time>
      </trkpt>
      <trkpt lat="45.62737" lon="4.46305">
        <ele>521</ele>
        <time>2024-04-26T23:05:27Z</time>
      </trkpt>
      <trkpt lat="45.62739" lon="4.46282">
        <ele>521</ele>
        <time>2024-04-26T23:05:48Z</time>
      </trkpt>
      <trkpt lat="45.62735" lon="4.46258">
        <ele>521</ele>
        <time>2024-04-26T23:06:11Z</time>
      </trkpt>
      <trkpt lat="45.6266" lon="4.46139">
        <ele>509</ele>
        <time>2024-04-26T23:08:41Z</time>
      </trkpt>
      <trkpt lat="45.6264" lon="4.461">
        <ele>509</ele>
        <time>2024-04-26T23:09:26Z</time>
      </trkpt>
      <trkpt lat="45.62632" lon="4.46072">
        <ele>509</ele>
        <time>2024-04-26T23:09:54Z</time>
      </trkpt>
      <trkpt lat="45.62621" lon="4.46012">
        <ele>507</ele>
        <time>2024-04-26T23:10:52Z</time>
      </trkpt>
      <trkpt lat="45.62599" lon="4.45966">
        <ele>506</ele>
        <time>2024-04-26T23:11:44Z</time>
      </trkpt>
      <trkpt lat="45.6258" lon="4.45899">
        <ele>505</ele>
        <time>2024-04-26T23:12:51Z</time>
      </trkpt>
      <trkpt lat="45.62578" lon="4.45863">
        <ele>506</ele>
        <time>2024-04-26T23:13:25Z</time>
      </trkpt>
      <trkpt lat="45.62578" lon="4.45828">
        <ele>506</ele>
        <time>2024-04-26T23:13:58Z</time>
      </trkpt>
      <trkpt lat="45.62564" lon="4.4583">
        <ele>508</ele>
        <time>2024-04-26T23:14:17Z</time>
      </trkpt>
      <trkpt lat="45.62569" lon="4.45829">
        <ele>507</ele>
        <time>2024-04-26T23:14:23Z</time>
      </trkpt>
      <trkpt lat="45.62565" lon="4.45808">
        <ele>509</ele>
        <time>2024-04-26T23:14:44Z</time>
      </trkpt>
      <trkpt lat="45.62569" lon="4.4578">
        <ele>509</ele>
        <time>2024-04-26T23:15:10Z</time>
      </trkpt>
      <trkpt lat="45.62574" lon="4.45758">
        <ele>509</ele>
        <time>2024-04-26T23:15:32Z</time>
      </trkpt>
      <trkpt lat="45.62581" lon="4.45741">
        <ele>508</ele>
        <time>2024-04-26T23:15:50Z</time>
      </trkpt>
      <trkpt lat="45.62603" lon="4.45705">
        <ele>508</ele>
        <time>2024-04-26T23:16:35Z</time>
      </trkpt>
      <trkpt lat="45.62613" lon="4.45677">
        <ele>508</ele>
        <time>2024-04-26T23:17:04Z</time>
      </trkpt>
      <trkpt lat="45.62636" lon="4.45602">
        <ele>509</ele>
        <time>2024-04-26T23:18:21Z</time>
      </trkpt>
      <trkpt lat="45.62642" lon="4.45577">
        <ele>509</ele>
        <time>2024-04-26T23:18:45Z</time>
      </trkpt>
      <trkpt lat="45.62646" lon="4.45543">
        <ele>510</ele>
        <time>2024-04-26T23:19:18Z</time>
      </trkpt>
      <trkpt lat="45.62641" lon="4.45504">
        <ele>512</ele>
        <time>2024-04-26T23:19:55Z</time>
      </trkpt>
      <trkpt lat="45.62639" lon="4.45498">
        <ele>512</ele>
        <time>2024-04-26T23:20:01Z</time>
      </trkpt>
      <trkpt lat="45.62621" lon="4.4545">
        <ele>511</ele>
        <time>2024-04-26T23:20:52Z</time>
      </trkpt>
      <trkpt lat="45.62625" lon="4.45393">
        <ele>510</ele>
        <time>2024-04-26T23:21:45Z</time>
      </trkpt>
      <trkpt lat="45.62623" lon="4.4537">
        <ele>510</ele>
        <time>2024-04-26T23:22:07Z</time>
      </trkpt>
      <trkpt lat="45.62611" lon="4.45324">
        <ele>508</ele>
        <time>2024-04-26T23:22:53Z</time>
      </trkpt>
      <trkpt lat="45.62602" lon="4.453">
        <ele>508</ele>
        <time>2024-04-26T23:23:18Z</time>
      </trkpt>
      <trkpt lat="45.62591" lon="4.45283">
        <ele>507</ele>
        <time>2024-04-26T23:23:40Z</time>
      </trkpt>
      <trkpt lat="45.62567" lon="4.45265">
        <ele>509</ele>
        <time>2024-04-26T23:24:16Z</time>
      </trkpt>
      <trkpt lat="45.62559" lon="4.45257">
        <ele>511</ele>
        <time>2024-04-26T23:24:29Z</time>
      </trkpt>
      <trkpt lat="45.62553" lon="4.45246">
        <ele>513</ele>
        <time>2024-04-26T23:24:42Z</time>
      </trkpt>
      <trkpt lat="45.62548" lon="4.45233">
        <ele>515</ele>
        <time>2024-04-26T23:24:56Z</time>
      </trkpt>
      <trkpt lat="45.6255" lon="4.45208">
        <ele>517</ele>
        <time>2024-04-26T23:25:19Z</time>
      </trkpt>
      <trkpt lat="45.62553" lon="4.45191">
        <ele>518</ele>
        <time>2024-04-26T23:25:35Z</time>
      </trkpt>
      <trkpt lat="45.62543" lon="4.45118">
        <ele>521</ele>
        <time>2024-04-26T23:26:45Z</time>
      </trkpt>
      <trkpt lat="45.62507" lon="4.45032">
        <ele>516</ele>
        <time>2024-04-26T23:28:18Z</time>
      </trkpt>
      <trkpt lat="45.62501" lon="4.45002">
        <ele>516</ele>
        <time>2024-04-26T23:28:48Z</time>
      </trkpt>
      <trkpt lat="45.62492" lon="4.44982">
        <ele>519</ele>
        <time>2024-04-26T23:29:10Z</time>
      </trkpt>
      <trkpt lat="45.62464" lon="4.44951">
        <ele>520</ele>
        <time>2024-04-26T23:29:57Z</time>
      </trkpt>
      <trkpt lat="45.62402" lon="4.44903">
        <ele>512</ele>
        <time>2024-04-26T23:31:31Z</time>
      </trkpt>
      <trkpt lat="45.62359" lon="4.44864">
        <ele>510</ele>
        <time>2024-04-26T23:32:39Z</time>
      </trkpt>
      <trkpt lat="45.62354" lon="4.44851">
        <ele>510</ele>
        <time>2024-04-26T23:32:53Z</time>
      </trkpt>
      <trkpt lat="45.62362" lon="4.44832">
        <ele>513</ele>
        <time>2024-04-26T23:33:14Z</time>
      </trkpt>
      <trkpt lat="45.62361" lon="4.44827">
        <ele>512</ele>
        <time>2024-04-26T23:33:18Z</time>
      </trkpt>
      <trkpt lat="45.62356" lon="4.44803">
        <ele>511</ele>
        <time>2024-04-26T23:33:42Z</time>
      </trkpt>
      <trkpt lat="45.62358" lon="4.44783">
        <ele>512</ele>
        <time>2024-04-26T23:34:01Z</time>
      </trkpt>
      <trkpt lat="45.62362" lon="4.44763">
        <ele>512</ele>
        <time>2024-04-26T23:34:20Z</time>
      </trkpt>
      <trkpt lat="45.62397" lon="4.44645">
        <ele>506</ele>
        <time>2024-04-26T23:36:20Z</time>
      </trkpt>
      <trkpt lat="45.62398" lon="4.44628">
        <ele>505</ele>
        <time>2024-04-26T23:36:36Z</time>
      </trkpt>
      <trkpt lat="45.62397" lon="4.44611">
        <ele>503</ele>
        <time>2024-04-26T23:36:52Z</time>
      </trkpt>
      <trkpt lat="45.62393" lon="4.44595">
        <ele>502</ele>
        <time>2024-04-26T23:37:07Z</time>
      </trkpt>
      <trkpt lat="45.62385" lon="4.44579">
        <ele>500</ele>
        <time>2024-04-26T23:37:26Z</time>
      </trkpt>
      <trkpt lat="45.62303" lon="4.44467">
        <ele>495</ele>
        <time>2024-04-26T23:39:57Z</time>
      </trkpt>
      <trkpt lat="45.62306" lon="4.4447">
        <ele>495</ele>
        <time>2024-04-26T23:40:02Z</time>
      </trkpt>
      <trkpt lat="45.62311" lon="4.44462">
        <ele>495</ele>
        <time>2024-04-26T23:40:12Z</time>
      </trkpt>
      <trkpt lat="45.62324" lon="4.44441">
        <ele>496</ele>
        <time>2024-04-26T23:40:38Z</time>
      </trkpt>
      <trkpt lat="45.62327" lon="4.44435">
        <ele>497</ele>
        <time>2024-04-26T23:40:45Z</time>
      </trkpt>
      <trkpt lat="45.62337" lon="4.44355">
        <ele>495</ele>
        <time>2024-04-26T23:42:01Z</time>
      </trkpt>
      <trkpt lat="45.6235" lon="4.44315">
        <ele>496</ele>
        <time>2024-04-26T23:42:42Z</time>
      </trkpt>
      <trkpt lat="45.62395" lon="4.44207">
        <ele>498</ele>
        <time>2024-04-26T23:44:39Z</time>
      </trkpt>
      <trkpt lat="45.62399" lon="4.44189">
        <ele>498</ele>
        <time>2024-04-26T23:44:57Z</time>
      </trkpt>
      <trkpt lat="45.62401" lon="4.44164">
        <ele>497</ele>
        <time>2024-04-26T23:45:20Z</time>
      </trkpt>
      <trkpt lat="45.624" lon="4.44147">
        <ele>497</ele>
        <time>2024-04-26T23:45:36Z</time>
      </trkpt>
      <trkpt lat="45.62391" lon="4.44057">
        <ele>494</ele>
        <time>2024-04-26T23:47:01Z</time>
      </trkpt>
      <trkpt lat="45.6238" lon="4.44006">
        <ele>493</ele>
        <time>2024-04-26T23:47:51Z</time>
      </trkpt>
      <trkpt lat="45.62382" lon="4.43955">
        <ele>493</ele>
        <time>2024-04-26T23:48:39Z</time>
      </trkpt>
      <trkpt lat="45.62402" lon="4.43824">
        <ele>493</ele>
        <time>2024-04-26T23:50:44Z</time>
      </trkpt>
      <trkpt lat="45.62417" lon="4.43751">
        <ele>494</ele>
        <time>2024-04-26T23:51:55Z</time>
      </trkpt>
      <trkpt lat="45.62433" lon="4.43694">
        <ele>494</ele>
        <time>2024-04-26T23:52:52Z</time>
      </trkpt>
      <trkpt lat="45.62456" lon="4.43622">
        <ele>495</ele>
        <time>2024-04-26T23:54:06Z</time>
      </trkpt>
      <trkpt lat="45.62461" lon="4.43583">
        <ele>495</ele>
        <time>2024-04-26T23:54:43Z</time>
      </trkpt>
      <trkpt lat="45.6247" lon="4.43555">
        <ele>495</ele>
        <time>2024-04-26T23:55:12Z</time>
      </trkpt>
      <trkpt lat="45.62502" lon="4.43479">
        <ele>499</ele>
        <time>2024-04-26T23:56:35Z</time>
      </trkpt>
      <trkpt lat="45.62523" lon="4.43423">
        <ele>502</ele>
        <time>2024-04-26T23:57:34Z</time>
      </trkpt>
      <trkpt lat="45.62547" lon="4.43365">
        <ele>502</ele>
        <time>2024-04-26T23:58:37Z</time>
      </trkpt>
      <trkpt lat="45.62594" lon="4.43159">
        <ele>504</ele>
        <time>2024-04-27T00:01:59Z</time>
      </trkpt>
      <trkpt lat="45.62595" lon="4.43146">
        <ele>504</ele>
        <time>2024-04-27T00:02:11Z</time>
      </trkpt>
      <trkpt lat="45.62598" lon="4.43081">
        <ele>504</ele>
        <time>2024-04-27T00:03:12Z</time>
      </trkpt>
      <trkpt lat="45.6259" lon="4.42942">
        <ele>499</ele>
        <time>2024-04-27T00:05:22Z</time>
      </trkpt>
      <trkpt lat="45.62582" lon="4.42829">
        <ele>494</ele>
        <time>2024-04-27T00:07:08Z</time>
      </trkpt>
      <trkpt lat="45.62542" lon="4.42787">
        <ele>489</ele>
        <time>2024-04-27T00:08:14Z</time>
      </trkpt>
      <trkpt lat="45.62532" lon="4.42748">
        <ele>486</ele>
        <time>2024-04-27T00:08:53Z</time>
      </trkpt>
      <trkpt lat="45.6251" lon="4.42521">
        <ele>486</ele>
        <time>2024-04-27T00:12:27Z</time>
      </trkpt>
      <trkpt lat="45.62485" lon="4.4243">
        <ele>488</ele>
        <time>2024-04-27T00:13:58Z</time>
      </trkpt>
      <trkpt lat="45.62428" lon="4.42347">
        <ele>488</ele>
        <time>2024-04-27T00:15:47Z</time>
      </trkpt>
      <trkpt lat="45.62379" lon="4.42284">
        <ele>489</ele>
        <time>2024-04-27T00:17:15Z</time>
      </trkpt>
      <trkpt lat="45.62305" lon="4.42264">
        <ele>488</ele>
        <time>2024-04-27T00:18:55Z</time>
      </trkpt>
      <trkpt lat="45.62234" lon="4.42268">
        <ele>487</ele>
        <time>2024-04-27T00:20:30Z</time>
      </trkpt>
      <trkpt lat="45.62182" lon="4.42295">
        <ele>484</ele>
        <time>2024-04-27T00:21:44Z</time>
      </trkpt>
      <trkpt lat="45.62146" lon="4.42299">
        <ele>483</ele>
        <time>2024-04-27T00:22:32Z</time>
      </trkpt>
      <trkpt lat="45.62082" lon="4.42273">
        <ele>484</ele>
        <time>2024-04-27T00:24:01Z</time>
      </trkpt>
      <trkpt lat="45.62051" lon="4.42271">
        <ele>482</ele>
        <time>2024-04-27T00:24:42Z</time>
      </trkpt>
      <trkpt lat="45.62023" lon="4.42288">
        <ele>479</ele>
        <time>2024-04-27T00:25:23Z</time>
      </trkpt>
      <trkpt lat="45.61991" lon="4.42299">
        <ele>476</ele>
        <time>2024-04-27T00:26:07Z</time>
      </trkpt>
      <trkpt lat="45.61947" lon="4.42303">
        <ele>473</ele>
        <time>2024-04-27T00:27:06Z</time>
      </trkpt>
      <trkpt lat="45.61893" lon="4.42286">
        <ele>471</ele>
        <time>2024-04-27T00:28:19Z</time>
      </trkpt>
      <trkpt lat="45.61838" lon="4.42273">
        <ele>470</ele>
        <time>2024-04-27T00:29:34Z</time>
      </trkpt>
      <trkpt lat="45.61809" lon="4.4227">
        <ele>470</ele>
        <time>2024-04-27T00:30:13Z</time>
      </trkpt>
      <trkpt lat="45.61786" lon="4.42256">
        <ele>469</ele>
        <time>2024-04-27T00:30:46Z</time>
      </trkpt>
      <trkpt lat="45.61771" lon="4.42237">
        <ele>469</ele>
        <time>2024-04-27T00:31:13Z</time>
      </trkpt>
      <trkpt lat="45.61783" lon="4.42217">
        <ele>469</ele>
        <time>2024-04-27T00:31:37Z</time>
      </trkpt>
      <trkpt lat="45.61829" lon="4.42171">
        <ele>470</ele>
        <time>2024-04-27T00:32:52Z</time>
      </trkpt>
      <trkpt lat="45.61767" lon="4.42006">
        <ele>470</ele>
        <time>2024-04-27T00:35:47Z</time>
      </trkpt>
    </trkseg>
  </trk>
</gpx>